Terminal Aerodrome Forecast
Issued by NWS Knoxville/Tri Cities, TN

Home | Current Version | Previous Version | Text Only | Print | Product List | Glossary On
Versions: 1 2 3 4 5 6 7 8 9 10 11 12 13 14 15
000
FTUS44 KMRX 282320
TAFTRI
TAF
KTRI 282320Z 2900/2924 26007KT P6SM SCT050 SCT100
     FM290300 26003KT P6SM SCT250
     FM290900 00000KT 6SM BR SCT002
     FM291200 VRB02KT P6SM SKC
     FM291500 27005KT P6SM FEW050=

USA.gov is the U.S. government's official web portal to all federal, state and local government web resources and services.